sensor_id;sensor_type;location;lat;lon;timestamp;P1;durP1;ratioP1;P2;durP2;ratioP2
17340;SDS011;8788;49.930;8.660;2022-10-16T04:06:07;1.30;;;1.10;;
17340;SDS011;8788;49.930;8.660;2022-10-16T04:08:35;1.75;;;0.80;;
17340;SDS011;8788;49.930;8.660;2022-10-16T04:11:02;0.80;;;0.80;;
17340;SDS011;8788;49.930;8.660;2022-10-16T04:13:29;2.03;;;0.88;;
17340;SDS011;8788;49.930;8.660;2022-10-16T04:15:57;1.10;;;0.93;;
17340;SDS011;8788;49.930;8.660;2022-10-16T04:18:24;2.25;;;1.42;;
17340;SDS011;8788;49.930;8.660;2022-10-16T04:20:53;2.65;;;1.55;;
17340;SDS011;8788;49.930;8.660;2022-10-16T04:23:20;3.40;;;1.92;;
17340;SDS011;8788;49.930;8.660;2022-10-16T04:25:48;1.85;;;1.75;;
17340;SDS011;8788;49.930;8.660;2022-10-16T04:28:15;2.03;;;1.83;;
17340;SDS011;8788;49.930;8.660;2022-10-16T04:30:42;1.73;;;1.63;;
17340;SDS011;8788;49.930;8.660;2022-10-16T04:33:09;2.20;;;1.70;;
17340;SDS011;8788;49.930;8.660;2022-10-16T04:35:38;2.08;;;1.80;;
17340;SDS011;8788;49.930;8.660;2022-10-16T04:38:06;2.50;;;2.22;;
17340;SDS011;8788;49.930;8.660;2022-10-16T04:40:33;4.05;;;1.80;;
17340;SDS011;8788;49.930;8.660;2022-10-16T04:43:01;2.10;;;1.90;;
17340;SDS011;8788;49.930;8.660;2022-10-16T04:45:29;2.75;;;1.90;;
17340;SDS011;8788;49.930;8.660;2022-10-16T04:47:56;2.88;;;1.75;;
17340;SDS011;8788;49.930;8.660;2022-10-16T04:50:23;3.15;;;1.83;;
17340;SDS011;8788;49.930;8.660;2022-10-16T04:53:03;2.78;;;2.03;;
17340;SDS011;8788;49.930;8.660;2022-10-16T04:55:32;1.90;;;1.50;;
17340;SDS011;8788;49.930;8.660;2022-10-16T04:57:59;3.67;;;1.95;;
17340;SDS011;8788;49.930;8.660;2022-10-16T05:00:26;8.52;;;2.08;;
17340;SDS011;8788;49.930;8.660;2022-10-16T05:02:53;4.80;;;2.00;;
17340;SDS011;8788;49.930;8.660;2022-10-16T05:05:21;1.70;;;1.60;;
17340;SDS011;8788;49.930;8.660;2022-10-16T05:07:48;2.03;;;1.70;;
17340;SDS011;8788;49.930;8.660;2022-10-16T05:10:15;4.50;;;2.10;;
17340;SDS011;8788;49.930;8.660;2022-10-16T05:12:44;2.80;;;2.22;;
17340;SDS011;8788;49.930;8.660;2022-10-16T05:15:12;2.38;;;1.80;;
17340;SDS011;8788;49.930;8.660;2022-10-16T05:17:39;2.85;;;1.98;;
17340;SDS011;8788;49.930;8.660;2022-10-16T05:20:06;2.67;;;2.47;;
17340;SDS011;8788;49.930;8.660;2022-10-16T05:22:34;2.35;;;2.00;;
17340;SDS011;8788;49.930;8.660;2022-10-16T05:25:01;4.57;;;1.92;;
17340;SDS011;8788;49.930;8.660;2022-10-16T05:27:28;2.17;;;1.98;;
17340;SDS011;8788;49.930;8.660;2022-10-16T05:29:56;2.13;;;1.92;;
17340;SDS011;8788;49.930;8.660;2022-10-16T05:32:23;2.42;;;1.92;;
17340;SDS011;8788;49.930;8.660;2022-10-16T05:34:50;2.28;;;1.80;;
17340;SDS011;8788;49.930;8.660;2022-10-16T05:37:18;2.70;;;1.70;;
17340;SDS011;8788;49.930;8.660;2022-10-16T05:39:45;2.08;;;1.48;;
17340;SDS011;8788;49.930;8.660;2022-10-16T05:42:12;1.80;;;1.55;;
17340;SDS011;8788;49.930;8.660;2022-10-16T05:44:39;2.03;;;1.83;;
17340;SDS011;8788;49.930;8.660;2022-10-16T05:47:08;2.45;;;1.90;;
17340;SDS011;8788;49.930;8.660;2022-10-16T05:49:36;3.70;;;1.50;;
17340;SDS011;8788;49.930;8.660;2022-10-16T05:52:03;5.63;;;2.35;;
17340;SDS011;8788;49.930;8.660;2022-10-16T05:54:30;1.75;;;1.63;;
17340;SDS011;8788;49.930;8.660;2022-10-16T05:56:57;2.15;;;1.80;;
17340;SDS011;8788;49.930;8.660;2022-10-16T05:59:24;2.85;;;1.77;;
17340;SDS011;8788;49.930;8.660;2022-10-16T06:01:52;2.55;;;2.35;;
17340;SDS011;8788;49.930;8.660;2022-10-16T06:04:20;1.85;;;1.55;;
17340;SDS011;8788;49.930;8.660;2022-10-16T06:06:47;2.55;;;1.88;;
17340;SDS011;8788;49.930;8.660;2022-10-16T06:09:14;2.35;;;2.03;;
17340;SDS011;8788;49.930;8.660;2022-10-16T06:11:41;3.45;;;2.28;;
17340;SDS011;8788;49.930;8.660;2022-10-16T06:14:09;2.50;;;2.30;;
17340;SDS011;8788;49.930;8.660;2022-10-16T06:16:36;2.25;;;2.03;;
17340;SDS011;8788;49.930;8.660;2022-10-16T06:19:04;4.88;;;2.08;;
17340;SDS011;8788;49.930;8.660;2022-10-16T06:21:34;2.85;;;1.60;;
17340;SDS011;8788;49.930;8.660;2022-10-16T06:24:02;2.72;;;1.80;;
17340;SDS011;8788;49.930;8.660;2022-10-16T06:26:30;5.35;;;2.10;;
17340;SDS011;8788;49.930;8.660;2022-10-16T06:28:58;2.95;;;2.13;;
17340;SDS011;8788;49.930;8.660;2022-10-16T06:31:26;2.75;;;1.73;;
17340;SDS011;8788;49.930;8.660;2022-10-16T06:33:56;2.53;;;1.85;;
17340;SDS011;8788;49.930;8.660;2022-10-16T06:36:24;1.80;;;1.70;;
17340;SDS011;8788;49.930;8.660;2022-10-16T06:38:53;1.80;;;1.70;;
17340;SDS011;8788;49.930;8.660;2022-10-16T06:41:20;2.72;;;2.03;;
17340;SDS011;8788;49.930;8.660;2022-10-16T06:43:48;2.88;;;1.70;;
17340;SDS011;8788;49.930;8.660;2022-10-16T06:46:16;2.17;;;1.95;;
17340;SDS011;8788;49.930;8.660;2022-10-16T06:48:45;3.55;;;1.67;;
17340;SDS011;8788;49.930;8.660;2022-10-16T06:51:13;2.30;;;1.70;;
17340;SDS011;8788;49.930;8.660;2022-10-16T06:53:41;2.72;;;2.00;;
17340;SDS011;8788;49.930;8.660;2022-10-16T06:56:12;2.10;;;1.63;;
17340;SDS011;8788;49.930;8.660;2022-10-16T06:58:41;1.75;;;1.50;;
17340;SDS011;8788;49.930;8.660;2022-10-16T07:01:09;3.45;;;2.33;;
17340;SDS011;8788;49.930;8.660;2022-10-16T07:03:37;2.53;;;1.73;;
17340;SDS011;8788;49.930;8.660;2022-10-16T07:06:05;2.80;;;1.77;;
17340;SDS011;8788;49.930;8.660;2022-10-16T07:08:34;2.28;;;1.90;;
17340;SDS011;8788;49.930;8.660;2022-10-16T07:11:03;2.05;;;1.83;;
17340;SDS011;8788;49.930;8.660;2022-10-16T07:13:34;2.90;;;1.80;;
17340;SDS011;8788;49.930;8.660;2022-10-16T07:16:03;2.10;;;1.55;;
17340;SDS011;8788;49.930;8.660;2022-10-16T07:18:32;4.05;;;1.73;;
17340;SDS011;8788;49.930;8.660;2022-10-16T07:21:03;2.75;;;1.63;;
17340;SDS011;8788;49.930;8.660;2022-10-16T07:23:31;2.65;;;1.75;;
17340;SDS011;8788;49.930;8.660;2022-10-16T07:25:58;2.08;;;1.80;;
17340;SDS011;8788;49.930;8.660;2022-10-16T07:28:25;3.25;;;1.75;;
17340;SDS011;8788;49.930;8.660;2022-10-16T07:30:54;1.90;;;1.80;;
17340;SDS011;8788;49.930;8.660;2022-10-16T07:33:21;3.42;;;1.60;;
17340;SDS011;8788;49.930;8.660;2022-10-16T07:35:49;2.45;;;1.60;;
17340;SDS011;8788;49.930;8.660;2022-10-16T07:38:16;2.42;;;1.25;;
17340;SDS011;8788;49.930;8.660;2022-10-16T07:40:44;2.88;;;1.50;;
17340;SDS011;8788;49.930;8.660;2022-10-16T07:43:11;2.25;;;1.38;;
17340;SDS011;8788;49.930;8.660;2022-10-16T07:45:46;1.60;;;1.50;;
17340;SDS011;8788;49.930;8.660;2022-10-16T07:48:15;1.45;;;1.35;;
17340;SDS011;8788;49.930;8.660;2022-10-16T07:50:43;2.70;;;1.30;;
17340;SDS011;8788;49.930;8.660;2022-10-16T07:53:11;3.97;;;1.30;;
17340;SDS011;8788;49.930;8.660;2022-10-16T07:55:38;3.50;;;1.40;;
17340;SDS011;8788;49.930;8.660;2022-10-16T07:58:05;1.90;;;1.27;;
17340;SDS011;8788;49.930;8.660;2022-10-16T08:00:33;2.90;;;1.48;;
17340;SDS011;8788;49.930;8.660;2022-10-16T08:03:02;1.52;;;1.27;;
17340;SDS011;8788;49.930;8.660;2022-10-16T08:05:31;2.42;;;1.20;;
17340;SDS011;8788;49.930;8.660;2022-10-16T08:07:59;2.70;;;1.27;;
17340;SDS011;8788;49.930;8.660;2022-10-16T08:10:28;1.45;;;1.35;;
17340;SDS011;8788;49.930;8.660;2022-10-16T08:12:56;1.60;;;1.30;;
17340;SDS011;8788;49.930;8.660;2022-10-16T08:15:24;3.40;;;1.75;;
17340;SDS011;8788;49.930;8.660;2022-10-16T08:17:55;1.73;;;1.33;;
17340;SDS011;8788;49.930;8.660;2022-10-16T08:20:23;2.25;;;1.65;;
17340;SDS011;8788;49.930;8.660;2022-10-16T08:22:51;1.25;;;1.20;;
17340;SDS011;8788;49.930;8.660;2022-10-16T08:25:19;4.13;;;1.40;;
17340;SDS011;8788;49.930;8.660;2022-10-16T08:27:46;1.55;;;1.42;;
17340;SDS011;8788;49.930;8.660;2022-10-16T08:30:14;2.65;;;1.20;;
17340;SDS011;8788;49.930;8.660;2022-10-16T08:32:42;2.17;;;1.27;;
17340;SDS011;8788;49.930;8.660;2022-10-16T08:35:09;4.50;;;1.58;;
17340;SDS011;8788;49.930;8.660;2022-10-16T08:37:36;4.47;;;1.95;;
17340;SDS011;8788;49.930;8.660;2022-10-16T08:40:06;2.17;;;1.52;;
17340;SDS011;8788;49.930;8.660;2022-10-16T08:42:45;3.20;;;1.35;;
17340;SDS011;8788;49.930;8.660;2022-10-16T08:45:34;2.40;;;1.52;;
17340;SDS011;8788;49.930;8.660;2022-10-16T08:48:14;2.40;;;1.30;;
17340;SDS011;8788;49.930;8.660;2022-10-16T08:50:49;1.92;;;1.35;;
17340;SDS011;8788;49.930;8.660;2022-10-16T08:53:19;2.72;;;1.50;;
17340;SDS011;8788;49.930;8.660;2022-10-16T08:55:52;3.00;;;1.58;;
17340;SDS011;8788;49.930;8.660;2022-10-16T08:58:20;4.00;;;1.63;;
17340;SDS011;8788;49.930;8.660;2022-10-16T09:00:50;4.95;;;1.80;;
17340;SDS011;8788;49.930;8.660;2022-10-16T09:03:23;1.73;;;1.50;;
17340;SDS011;8788;49.930;8.660;2022-10-16T09:06:10;1.40;;;1.30;;
17340;SDS011;8788;49.930;8.660;2022-10-16T09:08:52;3.47;;;1.48;;
17340;SDS011;8788;49.930;8.660;2022-10-16T09:11:34;2.88;;;1.15;;
17340;SDS011;8788;49.930;8.660;2022-10-16T09:14:14;4.85;;;1.67;;
17340;SDS011;8788;49.930;8.660;2022-10-16T09:16:51;1.48;;;1.38;;
17340;SDS011;8788;49.930;8.660;2022-10-16T09:19:27;1.58;;;1.48;;
17340;SDS011;8788;49.930;8.660;2022-10-16T09:21:59;3.00;;;1.20;;
17340;SDS011;8788;49.930;8.660;2022-10-16T09:24:36;2.92;;;1.45;;
17340;SDS011;8788;49.930;8.660;2022-10-16T09:27:06;4.15;;;1.92;;
17340;SDS011;8788;49.930;8.660;2022-10-16T09:29:36;1.67;;;1.58;;
17340;SDS011;8788;49.930;8.660;2022-10-16T09:32:07;1.98;;;1.52;;
17340;SDS011;8788;49.930;8.660;2022-10-16T09:34:39;2.45;;;1.52;;
17340;SDS011;8788;49.930;8.660;2022-10-16T09:37:12;3.55;;;1.83;;
17340;SDS011;8788;49.930;8.660;2022-10-16T09:39:47;3.97;;;1.80;;
17340;SDS011;8788;49.930;8.660;2022-10-16T09:42:17;1.30;;;1.20;;
17340;SDS011;8788;49.930;8.660;2022-10-16T09:44:47;1.48;;;1.10;;
17340;SDS011;8788;49.930;8.660;2022-10-16T09:47:17;2.67;;;1.50;;
17340;SDS011;8788;49.930;8.660;2022-10-16T09:49:51;1.90;;;1.55;;
17340;SDS011;8788;49.930;8.660;2022-10-16T09:52:19;1.38;;;1.13;;
17340;SDS011;8788;49.930;8.660;2022-10-16T09:54:49;2.08;;;1.38;;
17340;SDS011;8788;49.930;8.660;2022-10-16T09:57:18;2.10;;;1.88;;
17340;SDS011;8788;49.930;8.660;2022-10-16T09:59:47;2.97;;;1.70;;
17340;SDS011;8788;49.930;8.660;2022-10-16T10:02:15;2.28;;;1.70;;
17340;SDS011;8788;49.930;8.660;2022-10-16T10:04:47;4.90;;;1.63;;
17340;SDS011;8788;49.930;8.660;2022-10-16T10:07:17;1.60;;;1.30;;
17340;SDS011;8788;49.930;8.660;2022-10-16T10:09:47;2.05;;;1.48;;
17340;SDS011;8788;49.930;8.660;2022-10-16T10:12:16;3.10;;;1.33;;
17340;SDS011;8788;49.930;8.660;2022-10-16T10:14:48;4.72;;;1.58;;
17340;SDS011;8788;49.930;8.660;2022-10-16T10:17:17;1.63;;;1.33;;
17340;SDS011;8788;49.930;8.660;2022-10-16T10:19:49;3.70;;;1.27;;
17340;SDS011;8788;49.930;8.660;2022-10-16T10:22:23;1.85;;;1.40;;
17340;SDS011;8788;49.930;8.660;2022-10-16T10:24:55;4.28;;;1.73;;
17340;SDS011;8788;49.930;8.660;2022-10-16T10:27:31;2.40;;;1.40;;
17340;SDS011;8788;49.930;8.660;2022-10-16T10:30:06;1.40;;;1.30;;
17340;SDS011;8788;49.930;8.660;2022-10-16T10:32:44;1.48;;;1.38;;
17340;SDS011;8788;49.930;8.660;2022-10-16T10:35:21;1.48;;;1.38;;
17340;SDS011;8788;49.930;8.660;2022-10-16T10:38:02;1.33;;;1.23;;
17340;SDS011;8788;49.930;8.660;2022-10-16T10:40:42;1.98;;;1.30;;
17340;SDS011;8788;49.930;8.660;2022-10-16T10:43:20;1.40;;;1.10;;
17340;SDS011;8788;49.930;8.660;2022-10-16T10:45:59;1.50;;;1.40;;
17340;SDS011;8788;49.930;8.660;2022-10-16T10:48:42;1.50;;;1.40;;
17340;SDS011;8788;49.930;8.660;2022-10-16T10:51:22;1.52;;;1.20;;
17340;SDS011;8788;49.930;8.660;2022-10-16T10:54:00;1.17;;;1.10;;
17340;SDS011;8788;49.930;8.660;2022-10-16T10:56:42;1.92;;;1.02;;
17340;SDS011;8788;49.930;8.660;2022-10-16T10:59:31;1.15;;;0.93;;
17340;SDS011;8788;49.930;8.660;2022-10-16T11:02:10;2.88;;;1.10;;
17340;SDS011;8788;49.930;8.660;2022-10-16T11:07:41;2.80;;;1.38;;
17340;SDS011;8788;49.930;8.660;2022-10-16T11:10:15;1.30;;;1.20;;
17340;SDS011;8788;49.930;8.660;2022-10-16T11:12:47;2.20;;;1.20;;
17340;SDS011;8788;49.930;8.660;2022-10-16T11:15:21;1.50;;;1.17;;
17340;SDS011;8788;49.930;8.660;2022-10-16T11:17:54;0.98;;;0.95;;
17340;SDS011;8788;49.930;8.660;2022-10-16T11:20:28;2.15;;;1.05;;
17340;SDS011;8788;49.930;8.660;2022-10-16T11:23:00;1.42;;;0.98;;
17340;SDS011;8788;49.930;8.660;2022-10-16T11:25:34;1.20;;;1.10;;
17340;SDS011;8788;49.930;8.660;2022-10-16T11:28:02;1.08;;;1.00;;
17340;SDS011;8788;49.930;8.660;2022-10-16T11:30:40;1.20;;;1.10;;
17340;SDS011;8788;49.930;8.660;2022-10-16T11:33:22;0.90;;;0.90;;
17340;SDS011;8788;49.930;8.660;2022-10-16T11:35:59;1.88;;;0.80;;
17340;SDS011;8788;49.930;8.660;2022-10-16T11:38:30;0.80;;;0.80;;
17340;SDS011;8788;49.930;8.660;2022-10-16T11:41:04;1.90;;;0.98;;
17340;SDS011;8788;49.930;8.660;2022-10-16T11:43:41;1.20;;;1.10;;
17340;SDS011;8788;49.930;8.660;2022-10-16T11:46:15;1.00;;;1.00;;
17340;SDS011;8788;49.930;8.660;2022-10-16T11:48:45;1.48;;;1.35;;
17340;SDS011;8788;49.930;8.660;2022-10-16T11:51:16;1.02;;;0.93;;
17340;SDS011;8788;49.930;8.660;2022-10-16T11:53:50;1.95;;;1.33;;
17340;SDS011;8788;49.930;8.660;2022-10-16T11:56:21;1.50;;;1.40;;
17340;SDS011;8788;49.930;8.660;2022-10-16T11:58:52;1.70;;;1.38;;
17340;SDS011;8788;49.930;8.660;2022-10-16T12:01:27;2.15;;;0.90;;
17340;SDS011;8788;49.930;8.660;2022-10-16T12:04:04;1.38;;;1.10;;
17340;SDS011;8788;49.930;8.660;2022-10-16T12:06:41;1.45;;;1.20;;
17340;SDS011;8788;49.930;8.660;2022-10-16T12:09:13;1.98;;;1.05;;
17340;SDS011;8788;49.930;8.660;2022-10-16T12:11:46;1.30;;;1.05;;
17340;SDS011;8788;49.930;8.660;2022-10-16T12:14:18;1.35;;;1.10;;
17340;SDS011;8788;49.930;8.660;2022-10-16T12:16:52;0.80;;;0.80;;
17340;SDS011;8788;49.930;8.660;2022-10-16T12:19:21;1.15;;;1.08;;
17340;SDS011;8788;49.930;8.660;2022-10-16T12:21:50;1.08;;;0.90;;
17340;SDS011;8788;49.930;8.660;2022-10-16T12:24:26;1.63;;;1.10;;
17340;SDS011;8788;49.930;8.660;2022-10-16T12:26:58;2.15;;;1.00;;
17340;SDS011;8788;49.930;8.660;2022-10-16T12:29:29;1.38;;;1.20;;
17340;SDS011;8788;49.930;8.660;2022-10-16T12:32:04;0.80;;;0.80;;
17340;SDS011;8788;49.930;8.660;2022-10-16T12:34:45;1.35;;;0.90;;
17340;SDS011;8788;49.930;8.660;2022-10-16T12:37:20;1.35;;;0.70;;
17340;SDS011;8788;49.930;8.660;2022-10-16T12:40:13;1.35;;;1.25;;
17340;SDS011;8788;49.930;8.660;2022-10-16T12:42:51;1.15;;;1.00;;
17340;SDS011;8788;49.930;8.660;2022-10-16T12:45:26;1.63;;;1.27;;
17340;SDS011;8788;49.930;8.660;2022-10-16T12:47:56;0.85;;;0.80;;
17340;SDS011;8788;49.930;8.660;2022-10-16T12:50:25;1.70;;;1.10;;
17340;SDS011;8788;49.930;8.660;2022-10-16T12:52:59;1.23;;;1.13;;
17340;SDS011;8788;49.930;8.660;2022-10-16T12:55:29;1.27;;;0.95;;
17340;SDS011;8788;49.930;8.660;2022-10-16T13:01:03;1.27;;;1.20;;
17340;SDS011;8788;49.930;8.660;2022-10-16T13:03:48;1.10;;;1.00;;
17340;SDS011;8788;49.930;8.660;2022-10-16T13:06:30;1.02;;;1.02;;
17340;SDS011;8788;49.930;8.660;2022-10-16T13:09:10;1.92;;;0.95;;
17340;SDS011;8788;49.930;8.660;2022-10-16T13:11:58;1.38;;;1.27;;
17340;SDS011;8788;49.930;8.660;2022-10-16T13:14:42;1.20;;;1.10;;
17340;SDS011;8788;49.930;8.660;2022-10-16T13:17:22;1.65;;;1.30;;
17340;SDS011;8788;49.930;8.660;2022-10-16T13:19:56;1.27;;;0.93;;
17340;SDS011;8788;49.930;8.660;2022-10-16T13:22:32;1.20;;;1.10;;
17340;SDS011;8788;49.930;8.660;2022-10-16T13:25:09;1.05;;;1.05;;
17340;SDS011;8788;49.930;8.660;2022-10-16T13:27:50;2.97;;;1.05;;
17340;SDS011;8788;49.930;8.660;2022-10-16T13:30:21;2.30;;;0.90;;
17340;SDS011;8788;49.930;8.660;2022-10-16T13:32:51;1.10;;;1.00;;
17340;SDS011;8788;49.930;8.660;2022-10-16T13:35:29;2.65;;;1.70;;
17340;SDS011;8788;49.930;8.660;2022-10-16T13:38:05;0.98;;;0.98;;
17340;SDS011;8788;49.930;8.660;2022-10-16T13:40:47;3.35;;;1.05;;
17340;SDS011;8788;49.930;8.660;2022-10-16T13:43:15;1.77;;;1.25;;
17340;SDS011;8788;49.930;8.660;2022-10-16T13:45:52;2.53;;;1.70;;
17340;SDS011;8788;49.930;8.660;2022-10-16T13:48:23;2.25;;;1.13;;
17340;SDS011;8788;49.930;8.660;2022-10-16T13:51:03;1.00;;;1.00;;
17340;SDS011;8788;49.930;8.660;2022-10-16T13:53:33;3.17;;;1.45;;
17340;SDS011;8788;49.930;8.660;2022-10-16T13:56:05;1.60;;;1.50;;
17340;SDS011;8788;49.930;8.660;2022-10-16T13:58:33;1.40;;;1.30;;
17340;SDS011;8788;49.930;8.660;2022-10-16T14:01:01;1.35;;;1.25;;
17340;SDS011;8788;49.930;8.660;2022-10-16T14:03:30;2.15;;;1.40;;
17340;SDS011;8788;49.930;8.660;2022-10-16T14:05:59;1.33;;;1.23;;
17340;SDS011;8788;49.930;8.660;2022-10-16T14:08:30;1.92;;;1.60;;
17340;SDS011;8788;49.930;8.660;2022-10-16T14:10:58;3.35;;;1.20;;
17340;SDS011;8788;49.930;8.660;2022-10-16T14:13:29;1.40;;;1.30;;
17340;SDS011;8788;49.930;8.660;2022-10-16T14:16:02;2.15;;;1.95;;
17340;SDS011;8788;49.930;8.660;2022-10-16T14:18:33;1.48;;;1.38;;
17340;SDS011;8788;49.930;8.660;2022-10-16T14:21:06;1.52;;;1.38;;
17340;SDS011;8788;49.930;8.660;2022-10-16T14:23:39;1.70;;;1.17;;
17340;SDS011;8788;49.930;8.660;2022-10-16T14:26:16;3.05;;;1.70;;
17340;SDS011;8788;49.930;8.660;2022-10-16T14:28:46;1.42;;;1.33;;
17340;SDS011;8788;49.930;8.660;2022-10-16T14:31:25;1.33;;;1.20;;
17340;SDS011;8788;49.930;8.660;2022-10-16T14:33:54;2.97;;;2.00;;
17340;SDS011;8788;49.930;8.660;2022-10-16T14:36:23;1.50;;;1.40;;
17340;SDS011;8788;49.930;8.660;2022-10-16T14:38:55;1.83;;;1.60;;
17340;SDS011;8788;49.930;8.660;2022-10-16T14:41:26;3.00;;;1.60;;
17340;SDS011;8788;49.930;8.660;2022-10-16T14:43:56;2.38;;;1.25;;
17340;SDS011;8788;49.930;8.660;2022-10-16T14:46:31;1.88;;;1.08;;
17340;SDS011;8788;49.930;8.660;2022-10-16T14:49:02;3.40;;;1.58;;
17340;SDS011;8788;49.930;8.660;2022-10-16T14:51:41;1.98;;;1.52;;
17340;SDS011;8788;49.930;8.660;2022-10-16T14:54:10;1.40;;;1.30;;
17340;SDS011;8788;49.930;8.660;2022-10-16T14:56:42;1.45;;;1.35;;
17340;SDS011;8788;49.930;8.660;2022-10-16T14:59:14;2.97;;;1.50;;
17340;SDS011;8788;49.930;8.660;2022-10-16T15:01:43;5.15;;;1.65;;
17340;SDS011;8788;49.930;8.660;2022-10-16T15:04:11;3.60;;;1.45;;
17340;SDS011;8788;49.930;8.660;2022-10-16T15:06:40;4.00;;;1.60;;
17340;SDS011;8788;49.930;8.660;2022-10-16T15:09:07;1.75;;;1.50;;
17340;SDS011;8788;49.930;8.660;2022-10-16T15:11:35;5.32;;;1.73;;
17340;SDS011;8788;49.930;8.660;2022-10-16T15:14:02;1.58;;;1.30;;
17340;SDS011;8788;49.930;8.660;2022-10-16T15:16:30;2.10;;;1.40;;
17340;SDS011;8788;49.930;8.660;2022-10-16T15:18:57;2.85;;;1.10;;
17340;SDS011;8788;49.930;8.660;2022-10-16T15:21:25;1.70;;;1.60;;
17340;SDS011;8788;49.930;8.660;2022-10-16T15:23:55;1.88;;;1.73;;
17340;SDS011;8788;49.930;8.660;2022-10-16T15:26:23;1.48;;;1.00;;
17340;SDS011;8788;49.930;8.660;2022-10-16T15:28:51;1.80;;;1.38;;
17340;SDS011;8788;49.930;8.660;2022-10-16T15:31:18;3.88;;;1.23;;
17340;SDS011;8788;49.930;8.660;2022-10-16T15:33:48;1.73;;;1.00;;
17340;SDS011;8788;49.930;8.660;2022-10-16T15:36:25;3.83;;;1.23;;
17340;SDS011;8788;49.930;8.660;2022-10-16T15:38:53;1.77;;;1.60;;
17340;SDS011;8788;49.930;8.660;2022-10-16T15:41:21;1.27;;;1.17;;
17340;SDS011;8788;49.930;8.660;2022-10-16T15:43:49;1.40;;;1.30;;
17340;SDS011;8788;49.930;8.660;2022-10-16T15:46:17;1.25;;;1.13;;
17340;SDS011;8788;49.930;8.660;2022-10-16T15:48:45;2.90;;;1.30;;
17340;SDS011;8788;49.930;8.660;2022-10-16T15:51:13;6.38;;;1.80;;
17340;SDS011;8788;49.930;8.660;2022-10-16T15:53:40;2.78;;;1.77;;
17340;SDS011;8788;49.930;8.660;2022-10-16T15:56:09;3.88;;;1.70;;
17340;SDS011;8788;49.930;8.660;2022-10-16T15:58:37;1.90;;;1.63;;
17340;SDS011;8788;49.930;8.660;2022-10-16T16:01:05;3.63;;;1.58;;
17340;SDS011;8788;49.930;8.660;2022-10-16T16:03:34;4.20;;;1.65;;
17340;SDS011;8788;49.930;8.660;2022-10-16T16:06:05;1.23;;;1.20;;
17340;SDS011;8788;49.930;8.660;2022-10-16T16:08:34;2.15;;;1.40;;
17340;SDS011;8788;49.930;8.660;2022-10-16T16:11:03;4.22;;;1.75;;
17340;SDS011;8788;49.930;8.660;2022-10-16T16:13:33;1.48;;;1.38;;
17340;SDS011;8788;49.930;8.660;2022-10-16T16:16:04;1.63;;;1.52;;
17340;SDS011;8788;49.930;8.660;2022-10-16T16:18:32;3.97;;;1.65;;
17340;SDS011;8788;49.930;8.660;2022-10-16T16:20:59;2.22;;;2.00;;
17340;SDS011;8788;49.930;8.660;2022-10-16T16:23:26;2.63;;;1.58;;
17340;SDS011;8788;49.930;8.660;2022-10-16T16:26:04;3.03;;;1.80;;
17340;SDS011;8788;49.930;8.660;2022-10-16T16:28:34;3.45;;;2.03;;
17340;SDS011;8788;49.930;8.660;2022-10-16T16:31:01;2.22;;;1.42;;
17340;SDS011;8788;49.930;8.660;2022-10-16T16:33:28;4.10;;;1.88;;
17340;SDS011;8788;49.930;8.660;2022-10-16T16:35:57;1.75;;;1.48;;
17340;SDS011;8788;49.930;8.660;2022-10-16T16:38:24;3.38;;;1.63;;
17340;SDS011;8788;49.930;8.660;2022-10-16T16:40:52;3.83;;;2.53;;
17340;SDS011;8788;49.930;8.660;2022-10-16T16:43:19;2.30;;;2.00;;
17340;SDS011;8788;49.930;8.660;2022-10-16T16:45:50;4.65;;;2.00;;
17340;SDS011;8788;49.930;8.660;2022-10-16T16:48:17;2.30;;;2.13;;
17340;SDS011;8788;49.930;8.660;2022-10-16T16:50:44;2.00;;;1.80;;
17340;SDS011;8788;49.930;8.660;2022-10-16T16:53:11;2.47;;;1.40;;
17340;SDS011;8788;49.930;8.660;2022-10-16T16:55:38;1.85;;;1.50;;
17340;SDS011;8788;49.930;8.660;2022-10-16T16:58:05;4.65;;;1.70;;
17340;SDS011;8788;49.930;8.660;2022-10-16T17:00:32;2.08;;;1.63;;
17340;SDS011;8788;49.930;8.660;2022-10-16T17:03:01;3.20;;;1.60;;
17340;SDS011;8788;49.930;8.660;2022-10-16T17:05:28;3.45;;;1.60;;
17340;SDS011;8788;49.930;8.660;2022-10-16T17:07:55;3.08;;;1.60;;
17340;SDS011;8788;49.930;8.660;2022-10-16T17:10:22;3.60;;;1.52;;
17340;SDS011;8788;49.930;8.660;2022-10-16T17:12:49;4.95;;;1.95;;
17340;SDS011;8788;49.930;8.660;2022-10-16T17:15:16;2.45;;;1.80;;
17340;SDS011;8788;49.930;8.660;2022-10-16T17:17:43;2.97;;;1.65;;
17340;SDS011;8788;49.930;8.660;2022-10-16T17:20:12;2.50;;;1.55;;
17340;SDS011;8788;49.930;8.660;2022-10-16T17:22:39;5.53;;;1.75;;
17340;SDS011;8788;49.930;8.660;2022-10-16T17:25:06;5.95;;;1.90;;
17340;SDS011;8788;49.930;8.660;2022-10-16T17:27:34;3.72;;;1.95;;
17340;SDS011;8788;49.930;8.660;2022-10-16T17:30:02;4.63;;;1.58;;
17340;SDS011;8788;49.930;8.660;2022-10-16T17:32:30;5.93;;;2.22;;
17340;SDS011;8788;49.930;8.660;2022-10-16T17:34:57;5.65;;;1.88;;
17340;SDS011;8788;49.930;8.660;2022-10-16T17:37:25;2.53;;;2.17;;
17340;SDS011;8788;49.930;8.660;2022-10-16T17:39:52;3.95;;;1.73;;
17340;SDS011;8788;49.930;8.660;2022-10-16T17:42:19;5.63;;;2.25;;
17340;SDS011;8788;49.930;8.660;2022-10-16T17:44:46;4.10;;;1.98;;
17340;SDS011;8788;49.930;8.660;2022-10-16T17:47:13;2.92;;;2.15;;
17340;SDS011;8788;49.930;8.660;2022-10-16T17:49:40;5.00;;;1.80;;
17340;SDS011;8788;49.930;8.660;2022-10-16T17:52:08;3.40;;;2.17;;
17340;SDS011;8788;49.930;8.660;2022-10-16T17:54:37;3.80;;;1.90;;
17340;SDS011;8788;49.930;8.660;2022-10-16T17:57:05;2.50;;;1.70;;
17340;SDS011;8788;49.930;8.660;2022-10-16T17:59:32;2.05;;;1.85;;
17340;SDS011;8788;49.930;8.660;2022-10-16T18:01:59;3.97;;;2.08;;
17340;SDS011;8788;49.930;8.660;2022-10-16T18:04:26;5.60;;;1.83;;
17340;SDS011;8788;49.930;8.660;2022-10-16T18:06:53;2.58;;;1.45;;
17340;SDS011;8788;49.930;8.660;2022-10-16T18:09:21;5.53;;;1.77;;
17340;SDS011;8788;49.930;8.660;2022-10-16T18:11:50;2.55;;;1.70;;
17340;SDS011;8788;49.930;8.660;2022-10-16T18:14:24;5.05;;;1.80;;
17340;SDS011;8788;49.930;8.660;2022-10-16T18:16:52;3.58;;;1.80;;
17340;SDS011;8788;49.930;8.660;2022-10-16T18:19:20;2.92;;;1.90;;
17340;SDS011;8788;49.930;8.660;2022-10-16T18:21:47;4.95;;;1.98;;
17340;SDS011;8788;49.930;8.660;2022-10-16T18:24:15;2.65;;;2.45;;
17340;SDS011;8788;49.930;8.660;2022-10-16T18:26:42;4.63;;;2.83;;
17340;SDS011;8788;49.930;8.660;2022-10-16T18:29:12;4.90;;;2.75;;
17340;SDS011;8788;49.930;8.660;2022-10-16T18:31:39;4.50;;;2.78;;
17340;SDS011;8788;49.930;8.660;2022-10-16T18:34:06;5.28;;;2.70;;
17340;SDS011;8788;49.930;8.660;2022-10-16T18:36:34;3.03;;;2.67;;
17340;SDS011;8788;49.930;8.660;2022-10-16T18:39:02;6.45;;;2.80;;
17340;SDS011;8788;49.930;8.660;2022-10-16T18:41:33;2.15;;;2.05;;
17340;SDS011;8788;49.930;8.660;2022-10-16T18:44:01;7.63;;;3.00;;
17340;SDS011;8788;49.930;8.660;2022-10-16T18:46:29;3.15;;;2.35;;
17340;SDS011;8788;49.930;8.660;2022-10-16T18:48:57;3.50;;;3.20;;
17340;SDS011;8788;49.930;8.660;2022-10-16T18:51:26;3.60;;;3.20;;
17340;SDS011;8788;49.930;8.660;2022-10-16T18:53:56;2.33;;;2.13;;
17340;SDS011;8788;49.930;8.660;2022-10-16T18:56:25;2.25;;;2.08;;
17340;SDS011;8788;49.930;8.660;2022-10-16T18:58:54;2.65;;;2.38;;
17340;SDS011;8788;49.930;8.660;2022-10-16T19:01:24;2.78;;;2.30;;
17340;SDS011;8788;49.930;8.660;2022-10-16T19:03:55;2.33;;;2.17;;
17340;SDS011;8788;49.930;8.660;2022-10-16T19:06:23;3.20;;;2.25;;
17340;SDS011;8788;49.930;8.660;2022-10-16T19:08:50;4.90;;;2.30;;
17340;SDS011;8788;49.930;8.660;2022-10-16T19:11:19;8.40;;;2.65;;
17340;SDS011;8788;49.930;8.660;2022-10-16T19:13:48;8.77;;;1.92;;
17340;SDS011;8788;49.930;8.660;2022-10-16T19:16:16;3.92;;;1.90;;
17340;SDS011;8788;49.930;8.660;2022-10-16T19:18:45;2.90;;;2.08;;
17340;SDS011;8788;49.930;8.660;2022-10-16T19:21:14;3.80;;;2.88;;
17340;SDS011;8788;49.930;8.660;2022-10-16T19:23:41;4.78;;;2.40;;
17340;SDS011;8788;49.930;8.660;2022-10-16T19:26:10;2.38;;;2.17;;
17340;SDS011;8788;49.930;8.660;2022-10-16T19:28:38;2.53;;;2.30;;
17340;SDS011;8788;49.930;8.660;2022-10-16T19:31:06;7.22;;;2.30;;